Flight Track Log - Related Links

Times and Time Zones

All times are in EDT time to prevent confusion due to time zone crossing. See the N55TG flight status page for this flight to view local times or setup timezone preferences in your user account.

Time Position Orientation Groundspeed Altitude Reporting Facility
EDT Latitude Longitude Course Direction KTS MPH feet Rate Location/Type
Thu 05:41:44 PM 42.2492 -73.3431 304° West 102 117 6,300  Level Boston Center
Thu 05:42:45 PM 42.2725 -73.3681 322° Northwest 114 131 6,200 -70 Descending Boston Center
Thu 05:43:10 PM 42.2808 -73.3744 330° Northwest 103 119 6,200 492 Level Boston Center
Thu 05:43:46 PM 42.2944 -73.3897 320° Northwest 96 110 6,700 387 Climbing Boston Center
Thu 05:44:12 PM 42.3033 -73.3942 340° North 100 115 6,600 -300 Descending Boston Center
Thu 05:44:46 PM 42.3211 -73.4072 331° Northwest 103 119 6,400 -290 Descending Boston Center
Thu 05:45:14 PM 42.3353 -73.4178 331° Northwest 106 122 6,300  Descending Boston Center
Thu 05:45:53 PM 42.3492 -73.4308 325° Northwest 112 129 6,400  Climbing Boston Center
Thu 05:46:16 PM 42.3600 -73.4403 327° Northwest 104 120 6,300 -109 Descending Boston Center
Thu 05:46:48 PM 42.3731 -73.4531 324° Northwest 107 123 6,300 -97 Level Boston Center
Thu 05:47:00 PM 42.5481 -73.4963 304° West  Level FlightAware Approximate
Thu 05:47:18 PM 42.3856 -73.4614 334° Northwest 109 125 6,200  Level Boston Center
Thu 05:47:36 PM 42.3917 -73.4681 321° Northwest 109 125 6,300 97 Climbing Boston Center
Thu 05:48:20 PM 42.4133 -73.4831 333° Northwest 105 121 6,300 90 Level Boston Center
Thu 05:48:43 PM 42.4217 -73.4925 320° Northwest 106 122 6,400 -83 Climbing Boston Center
Thu 05:49:32 PM 42.4403 -73.5072 330° Northwest 105 121 6,200 -238 Descending Boston Center
Thu 05:50:24 PM 42.4683 -73.5286 331° Northwest 114 131 6,000 -263 Descending Boston Center
Thu 05:51:26 PM 42.4947 -73.5536 325° Northwest 114 131 5,700 -240 Descending Boston Center
Thu 05:51:39 PM 42.4997 -73.5589 322° Northwest 117 135 5,700 -176 Level Boston Center
Thu 05:52:34 PM 42.5261 -73.5792 330° Northwest 119 137 5,500 -270 Descending Boston Center
Thu 05:53:30 PM 42.5536 -73.6006 330° Northwest 116 133 5,200 -254 Descending Boston Center
Thu 05:54:32 PM 42.5817 -73.6219 331° Northwest 116 133 5,000 -48 Descending Boston Center
Thu 05:55:34 PM 42.6094 -73.6436 330° Northwest 108 124 5,100 97 Climbing Boston Center
Thu 05:56:36 PM 42.6322 -73.6642 326° Northwest 103 119 5,200 48 Climbing Boston Center
Thu 05:57:38 PM 42.6569 -73.6875 325° Northwest 102 117 5,200 290 Level Boston Center
Thu 05:58:40 PM 42.6764 -73.7103 319° Northwest 94 108 5,800 595 Climbing Boston Center
Thu 05:59:39 PM 42.6917 -73.7306 316° Northwest 81 93 6,400 353 Climbing Boston Center
Thu 06:00:39 PM 42.7108 -73.7544 318° Northwest 91 105 6,500 94 Climbing Boston Center
Thu 06:01:46 PM 42.7358 -73.7828 320° Northwest 104 120 6,600  Climbing Boston Center
Thu 06:02:47 PM 42.7608 -73.8092 322° Northwest 117 135 6,500 -49 Descending Boston Center
Thu 06:03:48 PM 42.7836 -73.8375 318° Northwest 110 127 6,500 -50 Level Boston Center
Thu 06:04:48 PM 42.8044 -73.8647 316° Northwest 105 121 6,400  Descending Boston Center
Thu 06:05:49 PM 42.8275 -73.8903 321° Northwest 98 113 6,500 47 Climbing Boston Center
Thu 06:06:56 PM 42.8544 -73.9122 329° Northwest 101 116 6,500 47 Level Boston Center
Thu 06:07:57 PM 42.8803 -73.9314 331° Northwest 104 120 6,600 97 Climbing Boston Center
Thu 06:09:00 PM 42.9061 -73.9558 325° Northwest 105 121 6,700 48 Climbing Boston Center
Thu 06:10:02 PM 42.9308 -73.9781 327° Northwest 105 121 6,700 -50 Level Boston Center
Thu 06:10:59 PM 42.9553 -74.0011 325° Northwest 108 124 6,600 -97 Descending Boston Center
Thu 06:12:06 PM 42.9806 -74.0272 323° Northwest 107 123 6,500 -94 Descending Boston Center
Thu 06:13:06 PM 43.0069 -74.0481 330° Northwest 105 121 6,400 -52 Descending Boston Center
Thu 06:14:01 PM 43.0261 -74.0722 317° Northwest 102 117 6,400 52 Level Boston Center
Thu 06:15:02 PM 43.0478 -74.0942 323° Northwest 99 114 6,500 169 Climbing Boston Center
Thu 06:15:12 PM 43.0531 -74.1014 315° West 104 120 6,600 83 Climbing Boston Center
Thu 06:16:14 PM 43.0742 -74.1253 320° Northwest 105 121 6,600  Level Boston Center
Thu 06:17:09 PM 43.0942 -74.1456 323° Northwest 100 115 6,600 -52 Level Boston Center
Thu 06:18:10 PM 43.1197 -74.1692 326° Northwest 100 115 6,500 -52 Descending Boston Center
Thu 06:19:04 PM 43.1442 -74.1892 329° Northwest 108 124 6,500  Level Boston Center
Thu 06:19:20 PM 43.1494 -74.1953 320° Northwest 105 121 6,500 109 Level Boston Center
Thu 06:19:59 PM 43.1658 -74.2114 324° Northwest 110 127 6,600  Climbing Boston Center
Thu 06:20:22 PM 43.1764 -74.2225 322° Northwest 105 121 6,500 90 Descending Boston Center
Thu 06:21:06 PM 43.1889 -74.2369 320° Northwest 110 127 6,700  Climbing Boston Center
Thu 06:21:24 PM 43.2231 -74.0536 76° East 171 197 6,500 -100 Descending Boston Center
Thu 06:22:06 PM 43.2125 -74.2600 266° West 107 123 6,600  Climbing Boston Center
Thu 06:22:26 PM 43.2233 -74.2725 320° Northwest 106 122 6,500 -113 Descending Boston Center
Thu 06:22:59 PM 43.2381 -74.2864 326° Northwest 108 124 6,500  Level Boston Center
Thu 06:23:29 PM 43.2475 -74.2969 321° Northwest 106 122 6,500  Level Boston Center
Thu 06:24:31 PM 43.2678 -74.3161 325° Northwest 105 121 6,500 189 Level Boston Center
Thu 06:25:36 PM 43.2978 -74.3414 328° Northwest 98 113 6,900 238 Climbing Boston Center
Thu 06:26:37 PM 43.3108 -74.3683 304° West 93 107 7,000 -49 Climbing Boston Center
Thu 06:27:38 PM 43.3297 -74.3972 312° West 101 116 6,800 -149 Descending Boston Center
Thu 06:28:38 PM 43.3556 -74.4222 325° Northwest 114 131 6,700 -99 Descending Boston Center
Thu 06:29:39 PM 43.3764 -74.4544 312° West 115 132 6,600 -197 Descending Boston Center
Thu 06:30:40 PM 43.3925 -74.4883 303° West 110 127 6,300 -149 Descending Boston Center
Thu 06:31:40 PM 43.4139 -74.5147 318° Northwest 107 123 6,300 110 Level Boston Center
Thu 06:32:29 PM 43.4344 -74.5325 328° Northwest 104 120 6,500 52 Climbing Boston Center
Thu 06:33:36 PM 43.4647 -74.5589 328° Northwest 105 121 6,400 -94 Descending Boston Center
Thu 06:34:36 PM 43.4894 -74.5778 331° Northwest 108 124 6,300  Descending Boston Center
Thu 06:35:37 PM 43.5136 -74.5994 327° Northwest 106 122 6,400 50 Climbing Boston Center
Thu 06:36:37 PM 43.5350 -74.6261 318° Northwest 104 120 6,400  Level Boston Center
Thu 06:38:00 PM 43.5517 -74.6837 292° West  Level FlightAware Approximate
Thu 06:45:00 PM 43.6359 -74.9756 292° West  Level FlightAware Approximate
Thu 06:46:00 PM 43.6478 -75.0174 292° West  Level FlightAware Approximate
Thu 06:47:00 PM 43.6598 -75.0592 292° West  Level FlightAware Approximate
Thu 06:48:00 PM 43.6730 -75.1015 296° West  Level FlightAware Approximate
Thu 06:49:00 PM 43.6869 -75.1421 295° West  Level FlightAware Approximate
Thu 06:50:00 PM 43.7009 -75.1827 295° West  Level FlightAware Approximate
Thu 06:51:00 PM 43.7149 -75.2233 295° West  Level FlightAware Approximate
Thu 06:52:00 PM 43.7288 -75.2639 295° West  Level FlightAware Approximate
Thu 06:53:00 PM 43.7427 -75.3046 295° West  Level FlightAware Approximate
Thu 06:54:00 PM 43.7566 -75.3453 295° West  Level FlightAware Approximate
Thu 06:55:00 PM 43.7705 -75.3859 295° West  Level FlightAware Approximate
Thu 06:56:00 PM 43.7844 -75.4267 295° West  Level FlightAware Approximate
Thu 06:57:00 PM 43.7983 -75.4674 295° West  Level FlightAware Approximate
Thu 06:58:00 PM 43.8121 -75.5081 295° West  Level FlightAware Approximate
Thu 06:59:00 PM 43.8260 -75.5489 295° West  Level FlightAware Approximate
Thu 07:00:00 PM 43.8398 -75.5897 295° West  Level FlightAware Approximate
Thu 07:01:00 PM 43.8536 -75.6305 295° West  Level FlightAware Approximate
Thu 07:02:00 PM 43.8674 -75.6713 295° West  Level FlightAware Approximate
Thu 07:03:00 PM 43.8812 -75.7121 295° West  Level FlightAware Approximate
Thu 07:04:00 PM 43.8950 -75.7530 295° West  Level FlightAware Approximate
Thu 07:05:00 PM 43.9087 -75.7939 295° West  Level FlightAware Approximate
Thu 07:06:00 PM 43.9225 -75.8347 295° West  Level FlightAware Approximate
Thu 07:07:00 PM 43.9362 -75.8757 295° West  Level FlightAware Approximate
Thu 07:08:00 PM 43.9499 -75.9166 295° West  Level FlightAware Approximate
Thu 07:09:00 PM 43.9636 -75.9575 295° West  Level FlightAware Approximate
Thu 07:10:00 PM 43.9773 -75.9985 295° West  Level FlightAware Approximate
Thu 07:11:00 PM 43.9833 -76.0167 296° West  Level FlightAware Approximate
Thu 07:12:00 PM 43.9919 -76.0207 341° North  Level Estimated
Thu 07:13:00 PM 43.9919 -76.0207 North  Level Estimated
Thu 07:14:00 PM 43.9919 -76.0207 North  Level Estimated
Thu 07:15:00 PM 43.9919 -76.0207 North  Level Estimated
Thu 07:16:00 PM 43.9919 -76.0207 North  Level Estimated
Thu 07:17:00 PM 43.9919 -76.0207 North  Level Estimated
Thu 07:18:00 PM 43.9919 -76.0207 North  Level Estimated
Thu 07:19:00 PM 43.9919 -76.0207 North  Level Estimated
Thu 07:20:00 PM 43.9919 -76.0207 North  Level Estimated
Thu 07:21:00 PM 43.9919 -76.0207 North  Level Estimated
Thu 07:22:00 PM 43.9919 -76.0207 North  Level Estimated
Thu 07:23:00 PM 43.9919 -76.0207 North  Level Estimated
Thu 07:24:00 PM 43.9919 -76.0207 North  Level Estimated
Thu 07:25:00 PM 43.9919 -76.0207 North  Level Estimated

Login

Don't have an account? Register now (free) for customized features, flight alerts, and more!